sensor_id;sensor_type;location;lat;lon;timestamp;P1;durP1;ratioP1;P2;durP2;ratioP2
28086;SDS011;15392;48.912;8.380;2023-02-04T00:01:59;0.75;;;0.75;;
28086;SDS011;15392;48.912;8.380;2023-02-04T00:04:25;0.80;;;0.80;;
28086;SDS011;15392;48.912;8.380;2023-02-04T00:06:51;0.90;;;0.90;;
28086;SDS011;15392;48.912;8.380;2023-02-04T00:09:17;0.80;;;0.80;;
28086;SDS011;15392;48.912;8.380;2023-02-04T00:11:43;0.90;;;0.90;;
28086;SDS011;15392;48.912;8.380;2023-02-04T00:14:09;1.20;;;1.20;;
28086;SDS011;15392;48.912;8.380;2023-02-04T00:16:36;0.82;;;0.82;;
28086;SDS011;15392;48.912;8.380;2023-02-04T00:19:01;1.00;;;1.00;;
28086;SDS011;15392;48.912;8.380;2023-02-04T00:21:27;1.13;;;1.13;;
28086;SDS011;15392;48.912;8.380;2023-02-04T00:23:53;0.90;;;0.90;;
28086;SDS011;15392;48.912;8.380;2023-02-04T00:26:19;0.80;;;0.80;;
28086;SDS011;15392;48.912;8.380;2023-02-04T00:28:45;0.65;;;0.65;;
28086;SDS011;15392;48.912;8.380;2023-02-04T00:31:11;0.75;;;0.75;;
28086;SDS011;15392;48.912;8.380;2023-02-04T00:33:37;1.00;;;1.00;;
28086;SDS011;15392;48.912;8.380;2023-02-04T00:36:02;0.80;;;0.80;;
28086;SDS011;15392;48.912;8.380;2023-02-04T00:38:28;1.00;;;1.00;;
28086;SDS011;15392;48.912;8.380;2023-02-04T00:40:54;0.90;;;0.90;;
28086;SDS011;15392;48.912;8.380;2023-02-04T00:43:20;0.95;;;0.95;;
28086;SDS011;15392;48.912;8.380;2023-02-04T00:45:45;0.90;;;0.90;;
28086;SDS011;15392;48.912;8.380;2023-02-04T00:48:11;0.85;;;0.85;;
28086;SDS011;15392;48.912;8.380;2023-02-04T00:50:37;1.02;;;1.02;;
28086;SDS011;15392;48.912;8.380;2023-02-04T00:53:04;1.00;;;1.00;;
28086;SDS011;15392;48.912;8.380;2023-02-04T00:55:31;0.82;;;0.82;;
28086;SDS011;15392;48.912;8.380;2023-02-04T00:57:57;0.98;;;0.98;;
28086;SDS011;15392;48.912;8.380;2023-02-04T01:00:22;0.80;;;0.80;;
28086;SDS011;15392;48.912;8.380;2023-02-04T01:02:48;1.00;;;1.00;;
28086;SDS011;15392;48.912;8.380;2023-02-04T01:05:14;0.85;;;0.85;;
28086;SDS011;15392;48.912;8.380;2023-02-04T01:07:40;0.90;;;0.90;;
28086;SDS011;15392;48.912;8.380;2023-02-04T01:10:06;0.90;;;0.90;;
28086;SDS011;15392;48.912;8.380;2023-02-04T01:12:32;0.90;;;0.90;;
28086;SDS011;15392;48.912;8.380;2023-02-04T01:14:57;1.00;;;1.00;;
28086;SDS011;15392;48.912;8.380;2023-02-04T01:17:23;1.10;;;1.10;;
28086;SDS011;15392;48.912;8.380;2023-02-04T01:19:49;1.52;;;1.00;;
28086;SDS011;15392;48.912;8.380;2023-02-04T01:22:15;1.00;;;1.00;;
28086;SDS011;15392;48.912;8.380;2023-02-04T01:24:40;0.85;;;0.85;;
28086;SDS011;15392;48.912;8.380;2023-02-04T01:27:06;0.85;;;0.85;;
28086;SDS011;15392;48.912;8.380;2023-02-04T01:29:32;0.90;;;0.90;;
28086;SDS011;15392;48.912;8.380;2023-02-04T01:31:57;0.98;;;0.98;;
28086;SDS011;15392;48.912;8.380;2023-02-04T01:34:23;0.80;;;0.80;;
28086;SDS011;15392;48.912;8.380;2023-02-04T01:36:50;1.08;;;1.08;;
28086;SDS011;15392;48.912;8.380;2023-02-04T01:39:16;0.75;;;0.75;;
28086;SDS011;15392;48.912;8.380;2023-02-04T01:41:42;1.05;;;1.05;;
28086;SDS011;15392;48.912;8.380;2023-02-04T01:44:07;0.70;;;0.70;;
28086;SDS011;15392;48.912;8.380;2023-02-04T01:46:33;0.68;;;0.68;;
28086;SDS011;15392;48.912;8.380;2023-02-04T01:49:02;0.80;;;0.80;;
28086;SDS011;15392;48.912;8.380;2023-02-04T01:51:29;1.10;;;1.10;;
28086;SDS011;15392;48.912;8.380;2023-02-04T01:53:56;0.85;;;0.85;;
28086;SDS011;15392;48.912;8.380;2023-02-04T01:56:23;0.90;;;0.90;;
28086;SDS011;15392;48.912;8.380;2023-02-04T01:58:52;0.80;;;0.80;;
28086;SDS011;15392;48.912;8.380;2023-02-04T02:01:33;1.00;;;1.00;;
28086;SDS011;15392;48.912;8.380;2023-02-04T02:04:11;0.85;;;0.85;;
28086;SDS011;15392;48.912;8.380;2023-02-04T02:06:41;1.13;;;1.02;;
28086;SDS011;15392;48.912;8.380;2023-02-04T02:09:12;0.80;;;0.80;;
28086;SDS011;15392;48.912;8.380;2023-02-04T02:11:38;1.20;;;1.20;;
28086;SDS011;15392;48.912;8.380;2023-02-04T02:14:03;0.95;;;0.95;;
28086;SDS011;15392;48.912;8.380;2023-02-04T02:16:29;0.93;;;0.93;;
28086;SDS011;15392;48.912;8.380;2023-02-04T02:18:55;1.10;;;1.10;;
28086;SDS011;15392;48.912;8.380;2023-02-04T02:21:29;0.93;;;0.93;;
28086;SDS011;15392;48.912;8.380;2023-02-04T02:26:57;1.40;;;1.40;;
28086;SDS011;15392;48.912;8.380;2023-02-04T02:29:32;1.10;;;1.10;;
28086;SDS011;15392;48.912;8.380;2023-02-04T02:31:59;1.00;;;1.00;;
28086;SDS011;15392;48.912;8.380;2023-02-04T02:34:25;1.05;;;1.05;;
28086;SDS011;15392;48.912;8.380;2023-02-04T02:36:53;0.80;;;0.80;;
28086;SDS011;15392;48.912;8.380;2023-02-04T02:39:19;0.98;;;0.98;;
28086;SDS011;15392;48.912;8.380;2023-02-04T02:41:45;1.20;;;1.20;;
28086;SDS011;15392;48.912;8.380;2023-02-04T02:44:12;1.20;;;1.20;;
28086;SDS011;15392;48.912;8.380;2023-02-04T02:46:39;1.10;;;1.10;;
28086;SDS011;15392;48.912;8.380;2023-02-04T02:49:05;0.80;;;0.80;;
28086;SDS011;15392;48.912;8.380;2023-02-04T02:51:31;0.82;;;0.82;;
28086;SDS011;15392;48.912;8.380;2023-02-04T02:53:57;0.70;;;0.70;;
28086;SDS011;15392;48.912;8.380;2023-02-04T02:56:22;0.55;;;0.55;;
28086;SDS011;15392;48.912;8.380;2023-02-04T02:58:48;0.50;;;0.50;;
28086;SDS011;15392;48.912;8.380;2023-02-04T03:01:14;0.50;;;0.50;;
28086;SDS011;15392;48.912;8.380;2023-02-04T03:03:42;0.65;;;0.65;;
28086;SDS011;15392;48.912;8.380;2023-02-04T03:06:18;0.60;;;0.60;;
28086;SDS011;15392;48.912;8.380;2023-02-04T03:08:49;0.50;;;0.50;;
28086;SDS011;15392;48.912;8.380;2023-02-04T03:11:19;0.55;;;0.55;;
28086;SDS011;15392;48.912;8.380;2023-02-04T03:13:45;0.60;;;0.60;;
28086;SDS011;15392;48.912;8.380;2023-02-04T03:16:11;0.47;;;0.47;;
28086;SDS011;15392;48.912;8.380;2023-02-04T03:18:37;0.40;;;0.40;;
28086;SDS011;15392;48.912;8.380;2023-02-04T03:21:03;0.38;;;0.38;;
28086;SDS011;15392;48.912;8.380;2023-02-04T03:23:32;0.35;;;0.35;;
28086;SDS011;15392;48.912;8.380;2023-02-04T03:25:59;0.30;;;0.30;;
28086;SDS011;15392;48.912;8.380;2023-02-04T03:28:25;0.50;;;0.50;;
28086;SDS011;15392;48.912;8.380;2023-02-04T03:30:51;0.38;;;0.38;;
28086;SDS011;15392;48.912;8.380;2023-02-04T03:33:20;0.40;;;0.40;;
28086;SDS011;15392;48.912;8.380;2023-02-04T03:35:55;0.35;;;0.35;;
28086;SDS011;15392;48.912;8.380;2023-02-04T03:38:22;0.40;;;0.40;;
28086;SDS011;15392;48.912;8.380;2023-02-04T03:40:48;0.68;;;0.28;;
28086;SDS011;15392;48.912;8.380;2023-02-04T03:43:13;0.30;;;0.30;;
28086;SDS011;15392;48.912;8.380;2023-02-04T03:45:39;0.20;;;0.20;;
28086;SDS011;15392;48.912;8.380;2023-02-04T03:48:05;0.28;;;0.28;;
28086;SDS011;15392;48.912;8.380;2023-02-04T03:50:32;0.20;;;0.20;;
28086;SDS011;15392;48.912;8.380;2023-02-04T03:52:57;0.68;;;0.20;;
28086;SDS011;15392;48.912;8.380;2023-02-04T03:55:23;0.28;;;0.28;;
28086;SDS011;15392;48.912;8.380;2023-02-04T03:57:50;0.35;;;0.35;;
28086;SDS011;15392;48.912;8.380;2023-02-04T04:00:17;0.30;;;0.30;;
28086;SDS011;15392;48.912;8.380;2023-02-04T04:02:43;0.35;;;0.30;;
28086;SDS011;15392;48.912;8.380;2023-02-04T04:05:09;0.40;;;0.40;;
28086;SDS011;15392;48.912;8.380;2023-02-04T04:07:35;0.40;;;0.40;;
28086;SDS011;15392;48.912;8.380;2023-02-04T04:10:01;0.20;;;0.20;;
28086;SDS011;15392;48.912;8.380;2023-02-04T04:12:28;1.23;;;0.30;;
28086;SDS011;15392;48.912;8.380;2023-02-04T04:14:53;0.40;;;0.40;;
28086;SDS011;15392;48.912;8.380;2023-02-04T04:17:19;0.50;;;0.50;;
28086;SDS011;15392;48.912;8.380;2023-02-04T04:19:45;0.20;;;0.20;;
28086;SDS011;15392;48.912;8.380;2023-02-04T04:22:11;0.30;;;0.30;;
28086;SDS011;15392;48.912;8.380;2023-02-04T04:24:36;0.73;;;0.50;;
28086;SDS011;15392;48.912;8.380;2023-02-04T04:27:02;0.30;;;0.30;;
28086;SDS011;15392;48.912;8.380;2023-02-04T04:29:28;0.30;;;0.30;;
28086;SDS011;15392;48.912;8.380;2023-02-04T04:31:54;0.60;;;0.50;;
28086;SDS011;15392;48.912;8.380;2023-02-04T04:34:19;0.55;;;0.30;;
28086;SDS011;15392;48.912;8.380;2023-02-04T04:36:45;0.52;;;0.52;;
28086;SDS011;15392;48.912;8.380;2023-02-04T04:39:11;0.63;;;0.63;;
28086;SDS011;15392;48.912;8.380;2023-02-04T04:41:37;0.60;;;0.60;;
28086;SDS011;15392;48.912;8.380;2023-02-04T04:44:02;0.70;;;0.70;;
28086;SDS011;15392;48.912;8.380;2023-02-04T04:46:28;0.90;;;0.80;;
28086;SDS011;15392;48.912;8.380;2023-02-04T04:48:54;0.90;;;0.63;;
28086;SDS011;15392;48.912;8.380;2023-02-04T04:51:20;0.60;;;0.60;;
28086;SDS011;15392;48.912;8.380;2023-02-04T04:53:45;0.63;;;0.63;;
28086;SDS011;15392;48.912;8.380;2023-02-04T04:56:11;1.27;;;0.70;;
28086;SDS011;15392;48.912;8.380;2023-02-04T04:58:37;0.63;;;0.60;;
28086;SDS011;15392;48.912;8.380;2023-02-04T05:01:03;0.68;;;0.60;;
28086;SDS011;15392;48.912;8.380;2023-02-04T05:03:28;0.68;;;0.68;;
28086;SDS011;15392;48.912;8.380;2023-02-04T05:05:54;0.50;;;0.50;;
28086;SDS011;15392;48.912;8.380;2023-02-04T05:08:20;1.00;;;0.75;;
28086;SDS011;15392;48.912;8.380;2023-02-04T05:10:45;0.65;;;0.63;;
28086;SDS011;15392;48.912;8.380;2023-02-04T05:13:11;0.90;;;0.70;;
28086;SDS011;15392;48.912;8.380;2023-02-04T05:15:37;0.90;;;0.60;;
28086;SDS011;15392;48.912;8.380;2023-02-04T05:18:03;0.65;;;0.60;;
28086;SDS011;15392;48.912;8.380;2023-02-04T05:20:29;0.50;;;0.50;;
28086;SDS011;15392;48.912;8.380;2023-02-04T05:22:54;0.73;;;0.50;;
28086;SDS011;15392;48.912;8.380;2023-02-04T05:25:21;0.50;;;0.50;;
28086;SDS011;15392;48.912;8.380;2023-02-04T05:27:47;0.80;;;0.50;;
28086;SDS011;15392;48.912;8.380;2023-02-04T05:30:13;0.52;;;0.52;;
28086;SDS011;15392;48.912;8.380;2023-02-04T05:32:40;0.50;;;0.50;;
28086;SDS011;15392;48.912;8.380;2023-02-04T05:35:06;0.57;;;0.57;;
28086;SDS011;15392;48.912;8.380;2023-02-04T05:37:32;0.85;;;0.40;;
28086;SDS011;15392;48.912;8.380;2023-02-04T05:39:58;0.60;;;0.50;;
28086;SDS011;15392;48.912;8.380;2023-02-04T05:42:23;1.05;;;0.95;;
28086;SDS011;15392;48.912;8.380;2023-02-04T05:44:49;0.70;;;0.70;;
28086;SDS011;15392;48.912;8.380;2023-02-04T05:47:15;0.70;;;0.70;;
28086;SDS011;15392;48.912;8.380;2023-02-04T05:49:41;0.65;;;0.65;;
28086;SDS011;15392;48.912;8.380;2023-02-04T05:52:07;0.57;;;0.57;;
28086;SDS011;15392;48.912;8.380;2023-02-04T05:54:32;0.65;;;0.50;;
28086;SDS011;15392;48.912;8.380;2023-02-04T05:56:58;0.68;;;0.60;;
28086;SDS011;15392;48.912;8.380;2023-02-04T05:59:24;0.60;;;0.60;;
28086;SDS011;15392;48.912;8.380;2023-02-04T06:01:49;1.15;;;0.70;;
28086;SDS011;15392;48.912;8.380;2023-02-04T06:04:15;0.80;;;0.55;;
28086;SDS011;15392;48.912;8.380;2023-02-04T06:06:42;0.47;;;0.47;;
28086;SDS011;15392;48.912;8.380;2023-02-04T06:09:08;0.47;;;0.47;;
28086;SDS011;15392;48.912;8.380;2023-02-04T06:11:34;0.47;;;0.47;;
28086;SDS011;15392;48.912;8.380;2023-02-04T06:14:00;0.60;;;0.40;;
28086;SDS011;15392;48.912;8.380;2023-02-04T06:16:26;0.45;;;0.45;;
28086;SDS011;15392;48.912;8.380;2023-02-04T06:18:52;0.68;;;0.55;;
28086;SDS011;15392;48.912;8.380;2023-02-04T06:21:18;1.10;;;0.70;;
28086;SDS011;15392;48.912;8.380;2023-02-04T06:23:44;0.50;;;0.50;;
28086;SDS011;15392;48.912;8.380;2023-02-04T06:26:10;0.68;;;0.68;;
28086;SDS011;15392;48.912;8.380;2023-02-04T06:28:36;2.38;;;0.80;;
28086;SDS011;15392;48.912;8.380;2023-02-04T06:31:01;0.40;;;0.40;;
28086;SDS011;15392;48.912;8.380;2023-02-04T06:33:27;0.60;;;0.60;;
28086;SDS011;15392;48.912;8.380;2023-02-04T06:35:53;0.73;;;0.73;;
28086;SDS011;15392;48.912;8.380;2023-02-04T06:38:19;0.47;;;0.43;;
28086;SDS011;15392;48.912;8.380;2023-02-04T06:40:44;1.40;;;0.77;;
28086;SDS011;15392;48.912;8.380;2023-02-04T06:43:14;0.50;;;0.50;;
28086;SDS011;15392;48.912;8.380;2023-02-04T06:45:40;0.45;;;0.45;;
28086;SDS011;15392;48.912;8.380;2023-02-04T06:48:06;0.60;;;0.35;;
28086;SDS011;15392;48.912;8.380;2023-02-04T06:50:32;0.50;;;0.50;;
28086;SDS011;15392;48.912;8.380;2023-02-04T06:52:57;0.60;;;0.60;;
28086;SDS011;15392;48.912;8.380;2023-02-04T06:55:23;0.30;;;0.30;;
28086;SDS011;15392;48.912;8.380;2023-02-04T06:57:49;0.40;;;0.40;;
28086;SDS011;15392;48.912;8.380;2023-02-04T07:00:14;0.50;;;0.50;;
28086;SDS011;15392;48.912;8.380;2023-02-04T07:02:40;0.47;;;0.40;;
28086;SDS011;15392;48.912;8.380;2023-02-04T07:05:06;0.30;;;0.30;;
28086;SDS011;15392;48.912;8.380;2023-02-04T07:07:33;0.30;;;0.30;;
28086;SDS011;15392;48.912;8.380;2023-02-04T07:09:59;0.20;;;0.20;;
28086;SDS011;15392;48.912;8.380;2023-02-04T07:12:25;0.30;;;0.20;;
28086;SDS011;15392;48.912;8.380;2023-02-04T07:14:51;0.40;;;0.40;;
28086;SDS011;15392;48.912;8.380;2023-02-04T07:17:17;0.30;;;0.30;;
28086;SDS011;15392;48.912;8.380;2023-02-04T07:19:42;0.30;;;0.30;;
28086;SDS011;15392;48.912;8.380;2023-02-04T07:22:09;0.35;;;0.35;;
28086;SDS011;15392;48.912;8.380;2023-02-04T07:24:34;0.22;;;0.22;;
28086;SDS011;15392;48.912;8.380;2023-02-04T07:27:00;0.30;;;0.30;;
28086;SDS011;15392;48.912;8.380;2023-02-04T07:29:26;0.47;;;0.47;;
28086;SDS011;15392;48.912;8.380;2023-02-04T07:31:52;0.38;;;0.38;;
28086;SDS011;15392;48.912;8.380;2023-02-04T07:34:18;0.43;;;0.40;;
28086;SDS011;15392;48.912;8.380;2023-02-04T07:36:44;0.60;;;0.47;;
28086;SDS011;15392;48.912;8.380;2023-02-04T07:39:10;1.13;;;0.47;;
28086;SDS011;15392;48.912;8.380;2023-02-04T07:41:35;0.30;;;0.30;;
28086;SDS011;15392;48.912;8.380;2023-02-04T07:44:02;0.77;;;0.70;;
28086;SDS011;15392;48.912;8.380;2023-02-04T07:46:28;0.50;;;0.50;;
28086;SDS011;15392;48.912;8.380;2023-02-04T07:48:54;0.60;;;0.60;;
28086;SDS011;15392;48.912;8.380;2023-02-04T07:51:20;0.60;;;0.57;;
28086;SDS011;15392;48.912;8.380;2023-02-04T07:53:46;0.50;;;0.50;;
28086;SDS011;15392;48.912;8.380;2023-02-04T07:56:12;0.70;;;0.70;;
28086;SDS011;15392;48.912;8.380;2023-02-04T07:58:37;1.30;;;0.65;;
28086;SDS011;15392;48.912;8.380;2023-02-04T08:01:03;0.60;;;0.60;;
28086;SDS011;15392;48.912;8.380;2023-02-04T08:03:29;0.60;;;0.60;;
28086;SDS011;15392;48.912;8.380;2023-02-04T08:05:55;0.50;;;0.50;;
28086;SDS011;15392;48.912;8.380;2023-02-04T08:08:20;0.50;;;0.50;;
28086;SDS011;15392;48.912;8.380;2023-02-04T08:10:46;0.60;;;0.60;;
28086;SDS011;15392;48.912;8.380;2023-02-04T08:13:12;0.95;;;0.60;;
28086;SDS011;15392;48.912;8.380;2023-02-04T08:15:38;0.50;;;0.50;;
28086;SDS011;15392;48.912;8.380;2023-02-04T08:18:03;0.70;;;0.45;;
28086;SDS011;15392;48.912;8.380;2023-02-04T08:20:29;0.50;;;0.50;;
28086;SDS011;15392;48.912;8.380;2023-02-04T08:22:56;0.40;;;0.40;;
28086;SDS011;15392;48.912;8.380;2023-02-04T08:25:22;1.02;;;0.60;;
28086;SDS011;15392;48.912;8.380;2023-02-04T08:27:48;1.95;;;0.70;;
28086;SDS011;15392;48.912;8.380;2023-02-04T08:30:13;0.60;;;0.60;;
28086;SDS011;15392;48.912;8.380;2023-02-04T08:32:39;0.82;;;0.82;;
28086;SDS011;15392;48.912;8.380;2023-02-04T08:35:06;0.68;;;0.68;;
28086;SDS011;15392;48.912;8.380;2023-02-04T08:37:32;2.50;;;2.40;;
28086;SDS011;15392;48.912;8.380;2023-02-04T08:39:58;1.63;;;1.52;;
28086;SDS011;15392;48.912;8.380;2023-02-04T08:42:24;1.90;;;1.80;;
28086;SDS011;15392;48.912;8.380;2023-02-04T08:44:50;1.52;;;1.42;;
28086;SDS011;15392;48.912;8.380;2023-02-04T08:47:16;1.65;;;1.55;;
28086;SDS011;15392;48.912;8.380;2023-02-04T08:49:41;1.80;;;1.70;;
28086;SDS011;15392;48.912;8.380;2023-02-04T08:52:07;2.20;;;2.05;;
28086;SDS011;15392;48.912;8.380;2023-02-04T08:54:33;1.90;;;1.80;;
28086;SDS011;15392;48.912;8.380;2023-02-04T08:57:00;3.67;;;3.03;;
28086;SDS011;15392;48.912;8.380;2023-02-04T08:59:26;3.38;;;3.08;;
28086;SDS011;15392;48.912;8.380;2023-02-04T09:01:52;2.30;;;2.20;;
28086;SDS011;15392;48.912;8.380;2023-02-04T09:04:19;1.90;;;1.80;;
28086;SDS011;15392;48.912;8.380;2023-02-04T09:06:46;1.85;;;1.75;;
28086;SDS011;15392;48.912;8.380;2023-02-04T09:09:13;3.72;;;3.47;;
28086;SDS011;15392;48.912;8.380;2023-02-04T09:11:39;3.92;;;3.70;;
28086;SDS011;15392;48.912;8.380;2023-02-04T09:14:06;4.05;;;3.80;;
28086;SDS011;15392;48.912;8.380;2023-02-04T09:16:32;4.13;;;3.83;;
28086;SDS011;15392;48.912;8.380;2023-02-04T09:18:58;4.30;;;4.10;;
28086;SDS011;15392;48.912;8.380;2023-02-04T09:21:24;2.80;;;2.60;;
28086;SDS011;15392;48.912;8.380;2023-02-04T09:23:50;1.50;;;1.40;;
28086;SDS011;15392;48.912;8.380;2023-02-04T09:26:16;1.25;;;1.25;;
28086;SDS011;15392;48.912;8.380;2023-02-04T09:28:42;3.65;;;0.98;;
28086;SDS011;15392;48.912;8.380;2023-02-04T09:31:07;1.23;;;1.13;;
28086;SDS011;15392;48.912;8.380;2023-02-04T09:33:34;1.10;;;1.00;;
28086;SDS011;15392;48.912;8.380;2023-02-04T09:36:01;1.23;;;1.13;;
28086;SDS011;15392;48.912;8.380;2023-02-04T09:38:27;1.13;;;1.00;;
28086;SDS011;15392;48.912;8.380;2023-02-04T09:40:53;1.00;;;0.90;;
28086;SDS011;15392;48.912;8.380;2023-02-04T09:43:25;1.95;;;0.82;;
28086;SDS011;15392;48.912;8.380;2023-02-04T09:45:54;1.38;;;1.20;;
28086;SDS011;15392;48.912;8.380;2023-02-04T09:48:21;1.15;;;0.75;;
28086;SDS011;15392;48.912;8.380;2023-02-04T09:50:49;1.23;;;0.95;;
28086;SDS011;15392;48.912;8.380;2023-02-04T09:53:20;1.05;;;0.93;;
28086;SDS011;15392;48.912;8.380;2023-02-04T09:55:49;1.00;;;1.00;;
28086;SDS011;15392;48.912;8.380;2023-02-04T09:58:19;1.13;;;1.05;;
28086;SDS011;15392;48.912;8.380;2023-02-04T10:00:48;1.30;;;1.20;;
28086;SDS011;15392;48.912;8.380;2023-02-04T10:03:22;1.45;;;1.10;;
28086;SDS011;15392;48.912;8.380;2023-02-04T10:05:48;0.98;;;0.93;;
28086;SDS011;15392;48.912;8.380;2023-02-04T10:08:16;1.75;;;1.40;;
28086;SDS011;15392;48.912;8.380;2023-02-04T10:10:46;1.50;;;1.33;;
28086;SDS011;15392;48.912;8.380;2023-02-04T10:13:15;2.75;;;1.23;;
28086;SDS011;15392;48.912;8.380;2023-02-04T10:15:50;1.25;;;1.17;;
28086;SDS011;15392;48.912;8.380;2023-02-04T10:18:24;2.15;;;1.75;;
28086;SDS011;15392;48.912;8.380;2023-02-04T10:20:56;0.93;;;0.93;;
28086;SDS011;15392;48.912;8.380;2023-02-04T10:23:44;1.70;;;1.20;;
28086;SDS011;15392;48.912;8.380;2023-02-04T10:28:40;0.95;;;0.85;;
28086;SDS011;15392;48.912;8.380;2023-02-04T10:31:25;1.42;;;1.15;;
28086;SDS011;15392;48.912;8.380;2023-02-04T10:34:14;1.45;;;1.35;;
28086;SDS011;15392;48.912;8.380;2023-02-04T10:36:46;1.23;;;1.10;;
28086;SDS011;15392;48.912;8.380;2023-02-04T10:39:22;1.17;;;1.05;;
28086;SDS011;15392;48.912;8.380;2023-02-04T10:41:54;1.52;;;1.33;;
28086;SDS011;15392;48.912;8.380;2023-02-04T10:44:27;1.90;;;1.50;;
28086;SDS011;15392;48.912;8.380;2023-02-04T10:47:03;1.80;;;1.70;;
28086;SDS011;15392;48.912;8.380;2023-02-04T10:49:38;1.80;;;1.55;;
28086;SDS011;15392;48.912;8.380;2023-02-04T10:52:06;1.55;;;1.20;;
28086;SDS011;15392;48.912;8.380;2023-02-04T10:54:40;3.00;;;1.50;;
28086;SDS011;15392;48.912;8.380;2023-02-04T10:59:56;1.77;;;1.50;;
28086;SDS011;15392;48.912;8.380;2023-02-04T11:05:18;1.88;;;1.50;;
28086;SDS011;15392;48.912;8.380;2023-02-04T11:07:46;2.08;;;1.40;;
28086;SDS011;15392;48.912;8.380;2023-02-04T11:10:17;1.30;;;1.17;;
28086;SDS011;15392;48.912;8.380;2023-02-04T11:18:27;1.73;;;1.63;;
28086;SDS011;15392;48.912;8.380;2023-02-04T11:20:55;2.13;;;1.92;;
28086;SDS011;15392;48.912;8.380;2023-02-04T11:26:02;3.63;;;3.28;;
28086;SDS011;15392;48.912;8.380;2023-02-04T11:39:33;3.10;;;2.03;;
28086;SDS011;15392;48.912;8.380;2023-02-04T11:42:23;2.55;;;2.03;;
28086;SDS011;15392;48.912;8.380;2023-02-04T11:45:11;2.92;;;2.20;;
28086;SDS011;15392;48.912;8.380;2023-02-04T11:47:51;3.33;;;2.03;;
28086;SDS011;15392;48.912;8.380;2023-02-04T11:50:27;1.60;;;1.50;;
28086;SDS011;15392;48.912;8.380;2023-02-04T11:52:59;1.17;;;1.08;;
28086;SDS011;15392;48.912;8.380;2023-02-04T11:55:26;1.85;;;1.52;;
28086;SDS011;15392;48.912;8.380;2023-02-04T11:57:55;0.93;;;0.93;;
28086;SDS011;15392;48.912;8.380;2023-02-04T12:00:28;1.92;;;1.30;;
28086;SDS011;15392;48.912;8.380;2023-02-04T12:03:02;1.98;;;1.30;;
28086;SDS011;15392;48.912;8.380;2023-02-04T12:08:25;2.13;;;1.13;;
28086;SDS011;15392;48.912;8.380;2023-02-04T12:11:09;1.58;;;1.10;;
28086;SDS011;15392;48.912;8.380;2023-02-04T12:13:49;1.30;;;1.15;;
28086;SDS011;15392;48.912;8.380;2023-02-04T12:16:18;2.03;;;1.25;;
28086;SDS011;15392;48.912;8.380;2023-02-04T12:18:44;2.53;;;0.88;;
28086;SDS011;15392;48.912;8.380;2023-02-04T12:21:10;1.23;;;1.13;;
28086;SDS011;15392;48.912;8.380;2023-02-04T12:23:36;2.88;;;1.60;;
28086;SDS011;15392;48.912;8.380;2023-02-04T12:26:01;2.05;;;1.50;;
28086;SDS011;15392;48.912;8.380;2023-02-04T12:28:27;1.83;;;1.50;;
28086;SDS011;15392;48.912;8.380;2023-02-04T12:30:54;1.20;;;1.08;;
28086;SDS011;15392;48.912;8.380;2023-02-04T12:33:20;1.40;;;1.20;;
28086;SDS011;15392;48.912;8.380;2023-02-04T12:35:47;1.48;;;1.08;;
28086;SDS011;15392;48.912;8.380;2023-02-04T12:38:13;1.50;;;1.15;;
28086;SDS011;15392;48.912;8.380;2023-02-04T12:40:39;1.52;;;1.13;;
28086;SDS011;15392;48.912;8.380;2023-02-04T12:43:05;2.40;;;1.15;;
28086;SDS011;15392;48.912;8.380;2023-02-04T12:45:31;1.65;;;1.10;;
28086;SDS011;15392;48.912;8.380;2023-02-04T12:47:58;1.02;;;1.00;;
28086;SDS011;15392;48.912;8.380;2023-02-04T12:50:24;1.90;;;1.40;;
28086;SDS011;15392;48.912;8.380;2023-02-04T12:52:51;2.25;;;1.10;;
28086;SDS011;15392;48.912;8.380;2023-02-04T12:55:20;1.08;;;0.98;;
28086;SDS011;15392;48.912;8.380;2023-02-04T12:57:47;2.55;;;1.10;;
28086;SDS011;15392;48.912;8.380;2023-02-04T13:00:14;1.27;;;1.02;;
28086;SDS011;15392;48.912;8.380;2023-02-04T13:02:42;1.40;;;0.95;;
28086;SDS011;15392;48.912;8.380;2023-02-04T13:05:08;1.23;;;1.02;;
28086;SDS011;15392;48.912;8.380;2023-02-04T13:07:35;1.17;;;1.02;;
28086;SDS011;15392;48.912;8.380;2023-02-04T13:10:01;1.25;;;1.10;;
28086;SDS011;15392;48.912;8.380;2023-02-04T13:12:28;2.28;;;1.38;;
28086;SDS011;15392;48.912;8.380;2023-02-04T13:14:54;0.95;;;0.88;;
28086;SDS011;15392;48.912;8.380;2023-02-04T13:17:20;1.73;;;1.20;;
28086;SDS011;15392;48.912;8.380;2023-02-04T13:19:46;1.75;;;1.20;;
28086;SDS011;15392;48.912;8.380;2023-02-04T13:22:11;1.70;;;1.30;;
28086;SDS011;15392;48.912;8.380;2023-02-04T13:24:37;0.85;;;0.82;;
28086;SDS011;15392;48.912;8.380;2023-02-04T13:27:03;1.35;;;1.25;;
28086;SDS011;15392;48.912;8.380;2023-02-04T13:29:28;1.95;;;1.23;;
28086;SDS011;15392;48.912;8.380;2023-02-04T13:31:54;0.93;;;0.88;;
28086;SDS011;15392;48.912;8.380;2023-02-04T13:34:20;1.40;;;1.30;;
28086;SDS011;15392;48.912;8.380;2023-02-04T13:36:46;1.17;;;0.98;;
28086;SDS011;15392;48.912;8.380;2023-02-04T13:39:12;1.08;;;0.98;;
28086;SDS011;15392;48.912;8.380;2023-02-04T13:41:38;1.63;;;1.30;;
28086;SDS011;15392;48.912;8.380;2023-02-04T13:44:05;1.25;;;1.15;;
28086;SDS011;15392;48.912;8.380;2023-02-04T13:46:31;1.52;;;1.42;;
28086;SDS011;15392;48.912;8.380;2023-02-04T13:48:58;1.33;;;1.00;;
28086;SDS011;15392;48.912;8.380;2023-02-04T13:51:23;0.68;;;0.68;;
28086;SDS011;15392;48.912;8.380;2023-02-04T13:53:50;1.13;;;1.00;;
28086;SDS011;15392;48.912;8.380;2023-02-04T13:56:16;0.95;;;0.90;;
28086;SDS011;15392;48.912;8.380;2023-02-04T13:58:41;1.20;;;1.10;;
28086;SDS011;15392;48.912;8.380;2023-02-04T14:01:12;1.05;;;0.80;;
28086;SDS011;15392;48.912;8.380;2023-02-04T14:03:38;1.60;;;1.10;;
28086;SDS011;15392;48.912;8.380;2023-02-04T14:06:05;1.08;;;1.02;;
28086;SDS011;15392;48.912;8.380;2023-02-04T14:08:31;1.58;;;1.48;;
28086;SDS011;15392;48.912;8.380;2023-02-04T14:10:57;1.58;;;0.90;;
28086;SDS011;15392;48.912;8.380;2023-02-04T14:13:22;1.58;;;1.08;;
28086;SDS011;15392;48.912;8.380;2023-02-04T14:15:48;1.45;;;1.20;;
28086;SDS011;15392;48.912;8.380;2023-02-04T14:18:14;1.23;;;1.13;;
28086;SDS011;15392;48.912;8.380;2023-02-04T14:20:43;1.85;;;1.10;;
28086;SDS011;15392;48.912;8.380;2023-02-04T14:23:09;1.85;;;1.20;;
28086;SDS011;15392;48.912;8.380;2023-02-04T14:25:37;1.33;;;0.90;;
28086;SDS011;15392;48.912;8.380;2023-02-04T14:28:03;1.40;;;1.10;;
28086;SDS011;15392;48.912;8.380;2023-02-04T14:30:30;0.85;;;0.70;;
28086;SDS011;15392;48.912;8.380;2023-02-04T14:32:57;1.27;;;0.98;;
28086;SDS011;15392;48.912;8.380;2023-02-04T14:35:23;0.88;;;0.80;;
28086;SDS011;15392;48.912;8.380;2023-02-04T14:37:49;1.00;;;0.70;;
28086;SDS011;15392;48.912;8.380;2023-02-04T14:40:16;1.10;;;0.98;;
28086;SDS011;15392;48.912;8.380;2023-02-04T14:42:43;0.93;;;0.75;;
28086;SDS011;15392;48.912;8.380;2023-02-04T14:45:10;0.77;;;0.77;;
28086;SDS011;15392;48.912;8.380;2023-02-04T14:47:37;1.52;;;0.70;;
28086;SDS011;15392;48.912;8.380;2023-02-04T14:50:05;1.05;;;1.05;;
28086;SDS011;15392;48.912;8.380;2023-02-04T14:52:41;1.10;;;1.00;;
28086;SDS011;15392;48.912;8.380;2023-02-04T14:55:07;1.00;;;0.88;;
28086;SDS011;15392;48.912;8.380;2023-02-04T14:57:36;1.23;;;1.20;;
28086;SDS011;15392;48.912;8.380;2023-02-04T15:00:03;1.88;;;1.50;;
28086;SDS011;15392;48.912;8.380;2023-02-04T15:02:30;1.88;;;1.77;;
28086;SDS011;15392;48.912;8.380;2023-02-04T15:04:56;2.15;;;1.95;;
28086;SDS011;15392;48.912;8.380;2023-02-04T15:07:22;1.63;;;1.52;;
28086;SDS011;15392;48.912;8.380;2023-02-04T15:09:47;1.90;;;1.40;;
28086;SDS011;15392;48.912;8.380;2023-02-04T15:12:13;1.30;;;1.20;;
28086;SDS011;15392;48.912;8.380;2023-02-04T15:14:39;1.80;;;1.70;;
28086;SDS011;15392;48.912;8.380;2023-02-04T15:17:05;1.55;;;1.20;;
28086;SDS011;15392;48.912;8.380;2023-02-04T15:19:31;2.05;;;1.40;;
28086;SDS011;15392;48.912;8.380;2023-02-04T15:21:56;1.15;;;1.05;;